sensor_id;sensor_type;location;lat;lon;timestamp;temperature;humidity
33655;DHT22;19997;51.274;22.506;2023-03-08T00:01:50;6.40;75.70
33655;DHT22;19997;51.274;22.506;2023-03-08T00:04:17;6.40;75.80
33655;DHT22;19997;51.274;22.506;2023-03-08T00:06:44;6.40;75.80
33655;DHT22;19997;51.274;22.506;2023-03-08T00:09:11;6.40;75.90
33655;DHT22;19997;51.274;22.506;2023-03-08T00:11:38;6.40;76.00
33655;DHT22;19997;51.274;22.506;2023-03-08T00:14:06;6.40;76.10
33655;DHT22;19997;51.274;22.506;2023-03-08T00:16:33;6.40;76.40
33655;DHT22;19997;51.274;22.506;2023-03-08T00:19:01;6.40;76.60
33655;DHT22;19997;51.274;22.506;2023-03-08T00:21:28;6.40;77.20
33655;DHT22;19997;51.274;22.506;2023-03-08T00:23:55;6.30;77.70
33655;DHT22;19997;51.274;22.506;2023-03-08T00:26:22;6.30;77.90
33655;DHT22;19997;51.274;22.506;2023-03-08T00:28:49;6.30;78.30
33655;DHT22;19997;51.274;22.506;2023-03-08T00:31:20;6.30;78.70
33655;DHT22;19997;51.274;22.506;2023-03-08T00:33:51;6.20;79.20
33655;DHT22;19997;51.274;22.506;2023-03-08T00:36:19;6.20;79.80
33655;DHT22;19997;51.274;22.506;2023-03-08T00:38:47;6.20;80.00
33655;DHT22;19997;51.274;22.506;2023-03-08T00:41:16;6.10;80.40
33655;DHT22;19997;51.274;22.506;2023-03-08T00:43:43;6.10;80.60
33655;DHT22;19997;51.274;22.506;2023-03-08T00:46:10;6.10;80.70
33655;DHT22;19997;51.274;22.506;2023-03-08T00:48:39;6.10;80.80
33655;DHT22;19997;51.274;22.506;2023-03-08T00:51:07;6.10;80.90
33655;DHT22;19997;51.274;22.506;2023-03-08T00:53:34;6.10;81.20
33655;DHT22;19997;51.274;22.506;2023-03-08T00:56:01;6.10;81.20
33655;DHT22;19997;51.274;22.506;2023-03-08T00:58:31;6.10;81.40
33655;DHT22;19997;51.274;22.506;2023-03-08T01:00:58;6.10;81.90
33655;DHT22;19997;51.274;22.506;2023-03-08T01:03:26;6.00;82.10
33655;DHT22;19997;51.274;22.506;2023-03-08T01:05:57;6.00;82.70
33655;DHT22;19997;51.274;22.506;2023-03-08T01:08:25;6.00;83.10
33655;DHT22;19997;51.274;22.506;2023-03-08T01:10:54;6.00;83.20
33655;DHT22;19997;51.274;22.506;2023-03-08T01:13:23;6.00;83.40
33655;DHT22;19997;51.274;22.506;2023-03-08T01:15:50;5.90;83.80
33655;DHT22;19997;51.274;22.506;2023-03-08T01:18:17;5.90;84.60
33655;DHT22;19997;51.274;22.506;2023-03-08T01:20:51;5.80;85.10
33655;DHT22;19997;51.274;22.506;2023-03-08T01:23:22;5.70;85.50
33655;DHT22;19997;51.274;22.506;2023-03-08T01:25:56;5.70;86.20
33655;DHT22;19997;51.274;22.506;2023-03-08T01:28:24;5.70;86.80
33655;DHT22;19997;51.274;22.506;2023-03-08T01:30:51;5.60;87.20
33655;DHT22;19997;51.274;22.506;2023-03-08T01:33:18;5.60;88.00
33655;DHT22;19997;51.274;22.506;2023-03-08T01:35:48;5.40;88.90
33655;DHT22;19997;51.274;22.506;2023-03-08T01:38:16;5.30;89.60
33655;DHT22;19997;51.274;22.506;2023-03-08T01:40:45;5.30;90.10
33655;DHT22;19997;51.274;22.506;2023-03-08T01:43:31;5.40;90.40
33655;DHT22;19997;51.274;22.506;2023-03-08T01:46:06;5.40;90.50
33655;DHT22;19997;51.274;22.506;2023-03-08T01:48:36;5.40;90.70
33655;DHT22;19997;51.274;22.506;2023-03-08T01:51:12;5.40;90.70
33655;DHT22;19997;51.274;22.506;2023-03-08T01:53:42;5.40;90.60
33655;DHT22;19997;51.274;22.506;2023-03-08T01:56:12;5.40;90.30
33655;DHT22;19997;51.274;22.506;2023-03-08T01:58:39;5.40;90.30
33655;DHT22;19997;51.274;22.506;2023-03-08T02:01:07;5.50;90.10
33655;DHT22;19997;51.274;22.506;2023-03-08T02:03:34;5.50;89.50
33655;DHT22;19997;51.274;22.506;2023-03-08T02:06:02;5.50;89.10
33655;DHT22;19997;51.274;22.506;2023-03-08T02:08:30;5.60;88.60
33655;DHT22;19997;51.274;22.506;2023-03-08T02:10:57;5.70;88.60
33655;DHT22;19997;51.274;22.506;2023-03-08T02:13:27;5.70;88.20
33655;DHT22;19997;51.274;22.506;2023-03-08T02:15:56;5.70;87.90
33655;DHT22;19997;51.274;22.506;2023-03-08T02:18:24;5.70;87.90
33655;DHT22;19997;51.274;22.506;2023-03-08T02:20:51;5.70;88.00
33655;DHT22;19997;51.274;22.506;2023-03-08T02:23:21;5.80;88.20
33655;DHT22;19997;51.274;22.506;2023-03-08T02:25:51;5.80;88.50
33655;DHT22;19997;51.274;22.506;2023-03-08T02:28:19;5.80;88.70
33655;DHT22;19997;51.274;22.506;2023-03-08T02:30:47;5.80;88.70
33655;DHT22;19997;51.274;22.506;2023-03-08T02:33:14;5.70;89.00
33655;DHT22;19997;51.274;22.506;2023-03-08T02:35:41;5.70;89.50
33655;DHT22;19997;51.274;22.506;2023-03-08T02:38:13;5.70;90.00
33655;DHT22;19997;51.274;22.506;2023-03-08T02:40:42;5.70;90.00
33655;DHT22;19997;51.274;22.506;2023-03-08T02:43:10;5.70;90.10
33655;DHT22;19997;51.274;22.506;2023-03-08T02:45:39;5.70;90.30
33655;DHT22;19997;51.274;22.506;2023-03-08T02:48:07;5.60;90.50
33655;DHT22;19997;51.274;22.506;2023-03-08T02:50:35;5.60;90.60
33655;DHT22;19997;51.274;22.506;2023-03-08T02:53:02;5.60;90.90
33655;DHT22;19997;51.274;22.506;2023-03-08T02:55:31;5.60;91.20
33655;DHT22;19997;51.274;22.506;2023-03-08T02:58:05;5.60;91.60
33655;DHT22;19997;51.274;22.506;2023-03-08T03:00:33;5.60;91.90
33655;DHT22;19997;51.274;22.506;2023-03-08T03:03:01;5.50;92.20
33655;DHT22;19997;51.274;22.506;2023-03-08T03:05:28;5.50;92.60
33655;DHT22;19997;51.274;22.506;2023-03-08T03:07:57;5.50;93.10
33655;DHT22;19997;51.274;22.506;2023-03-08T03:10:27;5.50;93.50
33655;DHT22;19997;51.274;22.506;2023-03-08T03:12:55;5.50;93.90
33655;DHT22;19997;51.274;22.506;2023-03-08T03:15:27;5.50;94.30
33655;DHT22;19997;51.274;22.506;2023-03-08T03:17:57;5.40;94.70
33655;DHT22;19997;51.274;22.506;2023-03-08T03:20:24;5.40;95.30
33655;DHT22;19997;51.274;22.506;2023-03-08T03:22:52;5.40;95.90
33655;DHT22;19997;51.274;22.506;2023-03-08T03:25:25;5.40;96.20
33655;DHT22;19997;51.274;22.506;2023-03-08T03:27:53;5.40;96.40
33655;DHT22;19997;51.274;22.506;2023-03-08T03:30:22;5.40;96.70
33655;DHT22;19997;51.274;22.506;2023-03-08T03:32:52;5.40;97.10
33655;DHT22;19997;51.274;22.506;2023-03-08T03:35:24;5.30;97.10
33655;DHT22;19997;51.274;22.506;2023-03-08T03:37:51;5.40;97.00
33655;DHT22;19997;51.274;22.506;2023-03-08T03:40:18;5.40;97.00
33655;DHT22;19997;51.274;22.506;2023-03-08T03:42:49;5.40;97.00
33655;DHT22;19997;51.274;22.506;2023-03-08T03:45:17;5.40;96.90
33655;DHT22;19997;51.274;22.506;2023-03-08T03:47:45;5.40;96.80
33655;DHT22;19997;51.274;22.506;2023-03-08T03:50:14;5.30;96.60
33655;DHT22;19997;51.274;22.506;2023-03-08T03:52:55;5.40;96.30
33655;DHT22;19997;51.274;22.506;2023-03-08T03:55:23;5.40;95.90
33655;DHT22;19997;51.274;22.506;2023-03-08T03:57:52;5.40;96.00
33655;DHT22;19997;51.274;22.506;2023-03-08T04:00:21;5.30;95.80
33655;DHT22;19997;51.274;22.506;2023-03-08T04:03:03;5.40;95.60
33655;DHT22;19997;51.274;22.506;2023-03-08T04:05:33;5.40;95.40
33655;DHT22;19997;51.274;22.506;2023-03-08T04:08:00;5.40;95.30
33655;DHT22;19997;51.274;22.506;2023-03-08T04:10:30;5.40;95.30
33655;DHT22;19997;51.274;22.506;2023-03-08T04:12:58;5.50;95.30
33655;DHT22;19997;51.274;22.506;2023-03-08T04:15:26;5.40;95.20
33655;DHT22;19997;51.274;22.506;2023-03-08T04:17:54;5.40;95.30
33655;DHT22;19997;51.274;22.506;2023-03-08T04:20:24;5.40;95.30
33655;DHT22;19997;51.274;22.506;2023-03-08T04:22:57;5.40;95.10
33655;DHT22;19997;51.274;22.506;2023-03-08T04:25:46;5.40;94.90
33655;DHT22;19997;51.274;22.506;2023-03-08T04:28:14;5.40;94.70
33655;DHT22;19997;51.274;22.506;2023-03-08T04:30:42;5.40;94.50
33655;DHT22;19997;51.274;22.506;2023-03-08T04:33:10;5.40;94.30
33655;DHT22;19997;51.274;22.506;2023-03-08T04:35:44;5.40;94.50
33655;DHT22;19997;51.274;22.506;2023-03-08T04:38:15;5.40;94.60
33655;DHT22;19997;51.274;22.506;2023-03-08T04:40:48;5.40;94.70
33655;DHT22;19997;51.274;22.506;2023-03-08T04:43:55;5.50;94.60
33655;DHT22;19997;51.274;22.506;2023-03-08T04:46:32;5.50;94.50
33655;DHT22;19997;51.274;22.506;2023-03-08T04:48:59;5.50;94.60
33655;DHT22;19997;51.274;22.506;2023-03-08T04:51:31;5.50;94.80
33655;DHT22;19997;51.274;22.506;2023-03-08T04:54:04;5.50;95.10
33655;DHT22;19997;51.274;22.506;2023-03-08T04:56:33;5.40;95.30
33655;DHT22;19997;51.274;22.506;2023-03-08T04:59:01;5.30;95.60
33655;DHT22;19997;51.274;22.506;2023-03-08T05:01:28;5.20;95.90
33655;DHT22;19997;51.274;22.506;2023-03-08T05:03:56;5.10;95.80
33655;DHT22;19997;51.274;22.506;2023-03-08T05:06:31;5.00;95.90
33655;DHT22;19997;51.274;22.506;2023-03-08T05:08:58;4.80;96.20
33655;DHT22;19997;51.274;22.506;2023-03-08T05:11:28;4.70;96.80
33655;DHT22;19997;51.274;22.506;2023-03-08T05:13:57;4.60;97.30
33655;DHT22;19997;51.274;22.506;2023-03-08T05:16:27;4.50;97.90
33655;DHT22;19997;51.274;22.506;2023-03-08T05:18:54;4.40;98.50
33655;DHT22;19997;51.274;22.506;2023-03-08T05:21:26;4.40;98.90
33655;DHT22;19997;51.274;22.506;2023-03-08T05:23:58;4.30;99.10
33655;DHT22;19997;51.274;22.506;2023-03-08T05:26:29;4.30;99.50
33655;DHT22;19997;51.274;22.506;2023-03-08T05:28:59;4.30;99.90
33655;DHT22;19997;51.274;22.506;2023-03-08T05:31:27;4.30;99.60
33655;DHT22;19997;51.274;22.506;2023-03-08T05:33:57;4.30;99.70
33655;DHT22;19997;51.274;22.506;2023-03-08T05:36:34;4.30;99.70
33655;DHT22;19997;51.274;22.506;2023-03-08T05:39:02;4.20;99.80
33655;DHT22;19997;51.274;22.506;2023-03-08T05:41:41;4.20;99.90
33655;DHT22;19997;51.274;22.506;2023-03-08T05:44:08;4.10;99.90
33655;DHT22;19997;51.274;22.506;2023-03-08T05:46:37;4.00;99.90
33655;DHT22;19997;51.274;22.506;2023-03-08T05:49:06;4.00;99.90
33655;DHT22;19997;51.274;22.506;2023-03-08T05:51:35;3.90;99.90
33655;DHT22;19997;51.274;22.506;2023-03-08T05:54:02;3.90;99.90
33655;DHT22;19997;51.274;22.506;2023-03-08T05:56:32;3.80;99.90
33655;DHT22;19997;51.274;22.506;2023-03-08T05:59:23;3.80;99.90
33655;DHT22;19997;51.274;22.506;2023-03-08T06:01:53;3.80;99.90
33655;DHT22;19997;51.274;22.506;2023-03-08T06:04:40;3.70;99.90
33655;DHT22;19997;51.274;22.506;2023-03-08T06:07:09;3.70;99.90
33655;DHT22;19997;51.274;22.506;2023-03-08T06:09:41;3.60;99.90
33655;DHT22;19997;51.274;22.506;2023-03-08T06:12:13;3.50;99.90
33655;DHT22;19997;51.274;22.506;2023-03-08T06:14:44;3.40;99.90
33655;DHT22;19997;51.274;22.506;2023-03-08T06:17:13;3.30;99.90
33655;DHT22;19997;51.274;22.506;2023-03-08T06:19:44;3.30;99.90
33655;DHT22;19997;51.274;22.506;2023-03-08T06:22:14;3.20;99.90
33655;DHT22;19997;51.274;22.506;2023-03-08T06:24:43;3.20;99.90
33655;DHT22;19997;51.274;22.506;2023-03-08T06:27:15;3.20;99.90
33655;DHT22;19997;51.274;22.506;2023-03-08T06:29:46;3.20;99.90
33655;DHT22;19997;51.274;22.506;2023-03-08T06:32:15;3.20;99.90
33655;DHT22;19997;51.274;22.506;2023-03-08T06:34:42;3.30;99.90
33655;DHT22;19997;51.274;22.506;2023-03-08T06:37:10;3.30;99.90
33655;DHT22;19997;51.274;22.506;2023-03-08T06:39:37;3.40;99.90
33655;DHT22;19997;51.274;22.506;2023-03-08T06:42:06;3.40;99.90
33655;DHT22;19997;51.274;22.506;2023-03-08T06:44:34;3.40;99.90
33655;DHT22;19997;51.274;22.506;2023-03-08T06:47:02;3.40;99.90
33655;DHT22;19997;51.274;22.506;2023-03-08T06:49:29;3.40;99.90
33655;DHT22;19997;51.274;22.506;2023-03-08T06:51:57;3.50;99.90
33655;DHT22;19997;51.274;22.506;2023-03-08T06:54:24;3.50;99.90
33655;DHT22;19997;51.274;22.506;2023-03-08T06:56:51;3.50;99.90
33655;DHT22;19997;51.274;22.506;2023-03-08T06:59:18;3.50;99.90
33655;DHT22;19997;51.274;22.506;2023-03-08T07:01:45;3.50;99.90
33655;DHT22;19997;51.274;22.506;2023-03-08T07:04:14;3.50;99.90
33655;DHT22;19997;51.274;22.506;2023-03-08T07:06:43;3.50;99.90
33655;DHT22;19997;51.274;22.506;2023-03-08T07:09:11;3.50;99.90
33655;DHT22;19997;51.274;22.506;2023-03-08T07:11:38;3.50;99.90
33655;DHT22;19997;51.274;22.506;2023-03-08T07:14:05;3.50;99.90
33655;DHT22;19997;51.274;22.506;2023-03-08T07:16:32;3.50;99.90
33655;DHT22;19997;51.274;22.506;2023-03-08T07:19:01;3.50;99.90
33655;DHT22;19997;51.274;22.506;2023-03-08T07:21:29;3.50;99.90
33655;DHT22;19997;51.274;22.506;2023-03-08T07:23:56;3.60;99.90
33655;DHT22;19997;51.274;22.506;2023-03-08T07:26:23;3.60;99.90
33655;DHT22;19997;51.274;22.506;2023-03-08T07:28:50;3.60;99.90
33655;DHT22;19997;51.274;22.506;2023-03-08T07:31:17;3.60;99.90
33655;DHT22;19997;51.274;22.506;2023-03-08T07:33:44;3.50;99.90
33655;DHT22;19997;51.274;22.506;2023-03-08T07:36:11;3.50;99.90
33655;DHT22;19997;51.274;22.506;2023-03-08T07:38:40;3.50;99.90
33655;DHT22;19997;51.274;22.506;2023-03-08T07:41:07;3.50;99.90
33655;DHT22;19997;51.274;22.506;2023-03-08T07:43:35;3.50;99.90
33655;DHT22;19997;51.274;22.506;2023-03-08T07:46:07;3.50;99.90
33655;DHT22;19997;51.274;22.506;2023-03-08T07:48:34;3.50;99.90
33655;DHT22;19997;51.274;22.506;2023-03-08T07:51:02;3.60;99.90
33655;DHT22;19997;51.274;22.506;2023-03-08T07:53:32;3.70;99.50
33655;DHT22;19997;51.274;22.506;2023-03-08T07:56:00;3.60;99.50
33655;DHT22;19997;51.274;22.506;2023-03-08T07:58:28;3.70;99.60
33655;DHT22;19997;51.274;22.506;2023-03-08T08:00:55;3.80;99.80
33655;DHT22;19997;51.274;22.506;2023-03-08T08:03:23;3.90;98.60
33655;DHT22;19997;51.274;22.506;2023-03-08T08:05:50;3.90;98.30
33655;DHT22;19997;51.274;22.506;2023-03-08T08:08:17;4.00;98.10
33655;DHT22;19997;51.274;22.506;2023-03-08T08:10:44;4.10;97.50
33655;DHT22;19997;51.274;22.506;2023-03-08T08:13:13;4.20;96.90
33655;DHT22;19997;51.274;22.506;2023-03-08T08:15:40;4.30;96.60
33655;DHT22;19997;51.274;22.506;2023-03-08T08:18:07;4.40;96.00
33655;DHT22;19997;51.274;22.506;2023-03-08T08:20:34;4.50;95.50
33655;DHT22;19997;51.274;22.506;2023-03-08T08:23:03;4.50;95.30
33655;DHT22;19997;51.274;22.506;2023-03-08T08:25:31;4.50;94.70
33655;DHT22;19997;51.274;22.506;2023-03-08T08:27:58;4.50;94.50
33655;DHT22;19997;51.274;22.506;2023-03-08T08:30:26;4.60;94.80
33655;DHT22;19997;51.274;22.506;2023-03-08T08:32:53;4.70;94.70
33655;DHT22;19997;51.274;22.506;2023-03-08T08:35:20;4.70;94.50
33655;DHT22;19997;51.274;22.506;2023-03-08T08:37:47;4.80;94.20
33655;DHT22;19997;51.274;22.506;2023-03-08T08:40:15;4.90;94.20
33655;DHT22;19997;51.274;22.506;2023-03-08T08:42:42;5.00;93.70
33655;DHT22;19997;51.274;22.506;2023-03-08T08:45:09;5.20;93.30
33655;DHT22;19997;51.274;22.506;2023-03-08T08:47:38;5.30;93.10
33655;DHT22;19997;51.274;22.506;2023-03-08T08:50:06;5.40;92.50
33655;DHT22;19997;51.274;22.506;2023-03-08T08:52:33;5.50;91.60
33655;DHT22;19997;51.274;22.506;2023-03-08T08:55:00;5.40;90.80
33655;DHT22;19997;51.274;22.506;2023-03-08T08:57:28;5.40;91.10
33655;DHT22;19997;51.274;22.506;2023-03-08T08:59:55;5.40;90.40
33655;DHT22;19997;51.274;22.506;2023-03-08T09:02:22;5.30;90.30
33655;DHT22;19997;51.274;22.506;2023-03-08T09:04:51;5.20;90.20
33655;DHT22;19997;51.274;22.506;2023-03-08T09:07:18;5.20;90.10
33655;DHT22;19997;51.274;22.506;2023-03-08T09:09:45;5.20;90.30
33655;DHT22;19997;51.274;22.506;2023-03-08T09:12:12;5.20;90.10
33655;DHT22;19997;51.274;22.506;2023-03-08T09:14:39;5.10;89.80
33655;DHT22;19997;51.274;22.506;2023-03-08T09:17:06;5.00;89.50
33655;DHT22;19997;51.274;22.506;2023-03-08T09:19:34;5.00;89.80
33655;DHT22;19997;51.274;22.506;2023-03-08T09:22:03;5.00;89.90
33655;DHT22;19997;51.274;22.506;2023-03-08T09:24:30;4.90;88.90
33655;DHT22;19997;51.274;22.506;2023-03-08T09:26:57;4.90;88.50
33655;DHT22;19997;51.274;22.506;2023-03-08T09:29:24;4.80;88.50
33655;DHT22;19997;51.274;22.506;2023-03-08T09:31:52;4.80;89.00
33655;DHT22;19997;51.274;22.506;2023-03-08T09:34:19;4.80;89.00
33655;DHT22;19997;51.274;22.506;2023-03-08T09:36:46;4.80;88.80
33655;DHT22;19997;51.274;22.506;2023-03-08T09:39:15;5.10;89.20
33655;DHT22;19997;51.274;22.506;2023-03-08T09:41:50;5.30;87.10
33655;DHT22;19997;51.274;22.506;2023-03-08T09:44:34;5.50;84.80
33655;DHT22;19997;51.274;22.506;2023-03-08T09:47:14;5.50;85.10
33655;DHT22;19997;51.274;22.506;2023-03-08T09:49:46;5.60;85.30
33655;DHT22;19997;51.274;22.506;2023-03-08T09:52:19;5.70;85.30
33655;DHT22;19997;51.274;22.506;2023-03-08T09:54:51;5.80;84.50
33655;DHT22;19997;51.274;22.506;2023-03-08T09:57:22;5.90;84.20
33655;DHT22;19997;51.274;22.506;2023-03-08T09:59:53;6.00;83.30
33655;DHT22;19997;51.274;22.506;2023-03-08T10:02:29;6.10;82.30
33655;DHT22;19997;51.274;22.506;2023-03-08T10:05:05;6.00;82.20
33655;DHT22;19997;51.274;22.506;2023-03-08T10:07:45;6.00;81.00
33655;DHT22;19997;51.274;22.506;2023-03-08T10:10:39;5.80;79.80
33655;DHT22;19997;51.274;22.506;2023-03-08T10:13:26;5.80;80.50
33655;DHT22;19997;51.274;22.506;2023-03-08T10:16:03;5.90;81.50
33655;DHT22;19997;51.274;22.506;2023-03-08T10:18:36;6.10;81.80
33655;DHT22;19997;51.274;22.506;2023-03-08T10:21:09;6.30;79.70
33655;DHT22;19997;51.274;22.506;2023-03-08T10:23:38;6.50;78.70
33655;DHT22;19997;51.274;22.506;2023-03-08T10:26:11;6.70;77.90
33655;DHT22;19997;51.274;22.506;2023-03-08T10:28:39;6.80;78.30
33655;DHT22;19997;51.274;22.506;2023-03-08T10:31:19;7.00;77.60
33655;DHT22;19997;51.274;22.506;2023-03-08T10:33:49;7.20;77.30
33655;DHT22;19997;51.274;22.506;2023-03-08T10:36:20;7.40;75.70
33655;DHT22;19997;51.274;22.506;2023-03-08T10:39:04;7.60;74.60
33655;DHT22;19997;51.274;22.506;2023-03-08T10:41:40;7.60;74.10
33655;DHT22;19997;51.274;22.506;2023-03-08T10:44:14;7.80;74.10
33655;DHT22;19997;51.274;22.506;2023-03-08T10:46:47;7.90;73.00
33655;DHT22;19997;51.274;22.506;2023-03-08T10:49:17;8.10;71.90
33655;DHT22;19997;51.274;22.506;2023-03-08T10:51:52;8.10;70.70
33655;DHT22;19997;51.274;22.506;2023-03-08T10:54:24;7.80;70.50
33655;DHT22;19997;51.274;22.506;2023-03-08T10:56:56;7.60;71.20
33655;DHT22;19997;51.274;22.506;2023-03-08T10:59:27;7.30;72.30
33655;DHT22;19997;51.274;22.506;2023-03-08T11:01:59;7.00;72.40
33655;DHT22;19997;51.274;22.506;2023-03-08T11:04:28;6.80;72.90
33655;DHT22;19997;51.274;22.506;2023-03-08T11:06:56;6.70;73.70
33655;DHT22;19997;51.274;22.506;2023-03-08T11:09:25;6.60;74.60
33655;DHT22;19997;51.274;22.506;2023-03-08T11:11:56;6.50;74.80
33655;DHT22;19997;51.274;22.506;2023-03-08T11:14:23;6.50;75.10
33655;DHT22;19997;51.274;22.506;2023-03-08T11:16:58;6.50;74.20
33655;DHT22;19997;51.274;22.506;2023-03-08T11:19:35;6.50;73.90
33655;DHT22;19997;51.274;22.506;2023-03-08T11:22:15;6.50;73.50
33655;DHT22;19997;51.274;22.506;2023-03-08T11:24:55;6.50;74.20
33655;DHT22;19997;51.274;22.506;2023-03-08T11:27:45;6.50;73.10
33655;DHT22;19997;51.274;22.506;2023-03-08T11:30:21;6.60;73.10
33655;DHT22;19997;51.274;22.506;2023-03-08T11:33:30;6.60;73.00
33655;DHT22;19997;51.274;22.506;2023-03-08T11:36:04;6.70;72.20
33655;DHT22;19997;51.274;22.506;2023-03-08T11:38:35;6.70;71.60
33655;DHT22;19997;51.274;22.506;2023-03-08T11:41:08;6.80;71.70
33655;DHT22;19997;51.274;22.506;2023-03-08T11:43:51;6.90;71.70
33655;DHT22;19997;51.274;22.506;2023-03-08T11:46:23;7.00;72.00
33655;DHT22;19997;51.274;22.506;2023-03-08T11:49:11;7.20;70.60
33655;DHT22;19997;51.274;22.506;2023-03-08T11:51:43;7.20;70.00
33655;DHT22;19997;51.274;22.506;2023-03-08T11:54:18;7.20;70.20
33655;DHT22;19997;51.274;22.506;2023-03-08T11:56:50;7.20;70.60
33655;DHT22;19997;51.274;22.506;2023-03-08T11:59:28;7.10;70.80
33655;DHT22;19997;51.274;22.506;2023-03-08T12:02:01;7.10;71.00
33655;DHT22;19997;51.274;22.506;2023-03-08T12:04:34;7.10;71.40
33655;DHT22;19997;51.274;22.506;2023-03-08T12:07:07;7.20;71.40
33655;DHT22;19997;51.274;22.506;2023-03-08T12:09:40;7.10;70.40
33655;DHT22;19997;51.274;22.506;2023-03-08T12:12:14;7.00;69.90
33655;DHT22;19997;51.274;22.506;2023-03-08T12:14:51;6.90;70.80
33655;DHT22;19997;51.274;22.506;2023-03-08T12:17:23;6.80;71.20
33655;DHT22;19997;51.274;22.506;2023-03-08T12:19:51;6.70;71.40
33655;DHT22;19997;51.274;22.506;2023-03-08T12:22:41;6.70;72.10
33655;DHT22;19997;51.274;22.506;2023-03-08T12:25:20;6.70;72.10
33655;DHT22;19997;51.274;22.506;2023-03-08T12:27:52;6.80;71.90
33655;DHT22;19997;51.274;22.506;2023-03-08T12:30:32;6.80;72.00
33655;DHT22;19997;51.274;22.506;2023-03-08T12:33:02;6.80;71.90
33655;DHT22;19997;51.274;22.506;2023-03-08T12:35:31;6.90;71.80
33655;DHT22;19997;51.274;22.506;2023-03-08T12:38:01;7.00;71.70
33655;DHT22;19997;51.274;22.506;2023-03-08T12:40:35;7.20;71.90
33655;DHT22;19997;51.274;22.506;2023-03-08T12:43:06;7.20;71.40
33655;DHT22;19997;51.274;22.506;2023-03-08T12:45:36;7.40;71.30
33655;DHT22;19997;51.274;22.506;2023-03-08T12:48:22;7.40;71.10
33655;DHT22;19997;51.274;22.506;2023-03-08T12:51:02;7.50;71.60
33655;DHT22;19997;51.274;22.506;2023-03-08T12:53:34;7.60;71.30
33655;DHT22;19997;51.274;22.506;2023-03-08T12:56:17;7.70;71.20
33655;DHT22;19997;51.274;22.506;2023-03-08T12:58:51;7.70;71.00
33655;DHT22;19997;51.274;22.506;2023-03-08T13:01:34;7.80;70.90
33655;DHT22;19997;51.274;22.506;2023-03-08T13:04:02;7.80;70.80
33655;DHT22;19997;51.274;22.506;2023-03-08T13:06:48;7.80;70.80
33655;DHT22;19997;51.274;22.506;2023-03-08T13:09:23;7.70;69.90
33655;DHT22;19997;51.274;22.506;2023-03-08T13:11:57;7.60;69.90
33655;DHT22;19997;51.274;22.506;2023-03-08T13:14:36;7.60;69.50
33655;DHT22;19997;51.274;22.506;2023-03-08T13:20:16;7.70;69.90
33655;DHT22;19997;51.274;22.506;2023-03-08T13:22:54;7.80;69.60
33655;DHT22;19997;51.274;22.506;2023-03-08T13:25:41;7.90;69.30
33655;DHT22;19997;51.274;22.506;2023-03-08T13:28:11;7.90;69.60
33655;DHT22;19997;51.274;22.506;2023-03-08T13:30:44;7.90;70.00
33655;DHT22;19997;51.274;22.506;2023-03-08T13:33:18;8.10;69.90
33655;DHT22;19997;51.274;22.506;2023-03-08T13:35:55;8.30;69.40
33655;DHT22;19997;51.274;22.506;2023-03-08T13:38:24;8.50;68.60
33655;DHT22;19997;51.274;22.506;2023-03-08T13:40:53;8.60;68.40
33655;DHT22;19997;51.274;22.506;2023-03-08T13:43:21;8.70;67.20
33655;DHT22;19997;51.274;22.506;2023-03-08T13:45:51;8.70;65.50
33655;DHT22;19997;51.274;22.506;2023-03-08T13:48:20;8.80;64.90
33655;DHT22;19997;51.274;22.506;2023-03-08T13:50:51;8.70;64.20
33655;DHT22;19997;51.274;22.506;2023-03-08T13:53:21;8.50;64.80
33655;DHT22;19997;51.274;22.506;2023-03-08T13:55:51;8.30;65.20
33655;DHT22;19997;51.274;22.506;2023-03-08T13:58:26;8.30;66.20
33655;DHT22;19997;51.274;22.506;2023-03-08T14:01:03;8.20;66.80
33655;DHT22;19997;51.274;22.506;2023-03-08T14:03:35;8.20;67.10
33655;DHT22;19997;51.274;22.506;2023-03-08T14:06:03;8.20;67.60
33655;DHT22;19997;51.274;22.506;2023-03-08T14:08:42;8.20;67.60
33655;DHT22;19997;51.274;22.506;2023-03-08T14:11:14;8.20;67.50
33655;DHT22;19997;51.274;22.506;2023-03-08T14:13:44;8.20;67.10
33655;DHT22;19997;51.274;22.506;2023-03-08T14:16:21;8.10;66.80
33655;DHT22;19997;51.274;22.506;2023-03-08T14:18:49;8.10;67.10
33655;DHT22;19997;51.274;22.506;2023-03-08T14:21:18;7.90;67.20
33655;DHT22;19997;51.274;22.506;2023-03-08T14:23:49;7.80;67.10
33655;DHT22;19997;51.274;22.506;2023-03-08T14:26:24;7.70;67.70
33655;DHT22;19997;51.274;22.506;2023-03-08T14:29:03;7.60;68.10
33655;DHT22;19997;51.274;22.506;2023-03-08T14:31:30;7.60;68.60
33655;DHT22;19997;51.274;22.506;2023-03-08T14:33:59;7.60;68.90
33655;DHT22;19997;51.274;22.506;2023-03-08T14:36:28;7.50;69.30
33655;DHT22;19997;51.274;22.506;2023-03-08T14:38:57;7.40;69.40
33655;DHT22;19997;51.274;22.506;2023-03-08T14:41:30;7.40;69.50
33655;DHT22;19997;51.274;22.506;2023-03-08T14:43:59;7.40;69.80
33655;DHT22;19997;51.274;22.506;2023-03-08T14:46:26;7.40;70.10
33655;DHT22;19997;51.274;22.506;2023-03-08T14:48:59;7.40;70.30
33655;DHT22;19997;51.274;22.506;2023-03-08T14:51:29;7.40;70.20
33655;DHT22;19997;51.274;22.506;2023-03-08T14:53:59;7.50;70.20
33655;DHT22;19997;51.274;22.506;2023-03-08T14:56:28;7.50;70.30
33655;DHT22;19997;51.274;22.506;2023-03-08T14:58:58;7.50;70.50
33655;DHT22;19997;51.274;22.506;2023-03-08T15:01:27;7.50;70.30
33655;DHT22;19997;51.274;22.506;2023-03-08T15:03:55;7.50;70.50
33655;DHT22;19997;51.274;22.506;2023-03-08T15:06:25;7.50;70.60
33655;DHT22;19997;51.274;22.506;2023-03-08T15:08:53;7.40;70.90
33655;DHT22;19997;51.274;22.506;2023-03-08T15:11:22;7.40;70.90
33655;DHT22;19997;51.274;22.506;2023-03-08T15:13:49;7.40;70.90
33655;DHT22;19997;51.274;22.506;2023-03-08T15:16:16;7.50;71.00
33655;DHT22;19997;51.274;22.506;2023-03-08T15:18:43;7.50;71.00
33655;DHT22;19997;51.274;22.506;2023-03-08T15:21:20;7.50;71.10
33655;DHT22;19997;51.274;22.506;2023-03-08T15:23:48;7.50;71.20
33655;DHT22;19997;51.274;22.506;2023-03-08T15:26:20;7.60;71.30
33655;DHT22;19997;51.274;22.506;2023-03-08T15:28:49;7.70;71.50
33655;DHT22;19997;51.274;22.506;2023-03-08T15:31:16;7.70;71.40
33655;DHT22;19997;51.274;22.506;2023-03-08T15:33:43;7.80;71.40
33655;DHT22;19997;51.274;22.506;2023-03-08T15:36:12;7.80;71.20
33655;DHT22;19997;51.274;22.506;2023-03-08T15:38:39;7.80;71.20
33655;DHT22;19997;51.274;22.506;2023-03-08T15:41:09;7.80;71.30
33655;DHT22;19997;51.274;22.506;2023-03-08T15:43:38;7.80;71.50
33655;DHT22;19997;51.274;22.506;2023-03-08T15:46:09;7.70;71.40
33655;DHT22;19997;51.274;22.506;2023-03-08T15:48:36;7.70;71.60
33655;DHT22;19997;51.274;22.506;2023-03-08T15:51:04;7.60;71.80
33655;DHT22;19997;51.274;22.506;2023-03-08T15:53:31;7.60;72.10
33655;DHT22;19997;51.274;22.506;2023-03-08T15:55:58;7.60;72.20